createdAt,value
2018-12-26T00:00:32.454Z,24.30
2018-12-26T00:03:12.449Z,25.43
2018-12-26T00:05:51.911Z,26.23
2018-12-26T00:08:32.047Z,24.50
2018-12-26T00:11:12.582Z,23.60
2018-12-26T00:13:52.083Z,24.20
2018-12-26T00:16:31.999Z,22.97
2018-12-26T00:19:12.106Z,24.00
2018-12-26T00:21:51.916Z,25.20
2018-12-26T00:24:32.118Z,24.00
2018-12-26T00:27:11.996Z,25.27
2018-12-26T00:29:53.169Z,22.87
2018-12-26T00:32:34.400Z,23.90
2018-12-26T00:35:14.561Z,22.70
2018-12-26T00:37:54.771Z,23.27
2018-12-26T00:40:34.746Z,22.03
2018-12-26T00:43:14.995Z,22.80
2018-12-26T00:45:55.232Z,23.00
2018-12-26T00:48:35.086Z,20.73
2018-12-26T00:51:15.047Z,22.07
2018-12-26T00:53:55.153Z,22.63
2018-12-26T00:56:35.180Z,21.27
2018-12-26T00:59:15.382Z,22.77
2018-12-26T01:01:54.704Z,20.10
2018-12-26T01:04:34.869Z,21.77
2018-12-26T01:07:15.082Z,20.77
2018-12-26T01:09:52.483Z,22.73
2018-12-26T01:12:32.446Z,21.47
2018-12-26T01:15:11.750Z,21.50
2018-12-26T01:17:51.763Z,22.47
2018-12-26T01:20:31.933Z,20.67
2018-12-26T01:23:12.035Z,21.57
2018-12-26T01:25:52.233Z,22.67
2018-12-26T01:28:32.561Z,21.37
2018-12-26T01:31:12.588Z,22.40
2018-12-26T01:33:52.859Z,20.00
2018-12-26T01:36:32.846Z,21.60
2018-12-26T01:39:12.133Z,19.03
2018-12-26T01:41:52.425Z,20.00
2018-12-26T01:44:32.276Z,19.57
2018-12-26T01:47:12.204Z,20.60
2018-12-26T01:49:53.242Z,20.97
2018-12-26T01:52:32.659Z,20.13
2018-12-26T01:55:13.632Z,19.80
2018-12-26T01:57:53.762Z,20.37
2018-12-26T02:00:33.839Z,19.93
2018-12-26T02:03:14.025Z,20.47
2018-12-26T02:05:54.151Z,20.60
2018-12-26T02:08:20.593Z,20.60
2018-12-26T02:11:06.891Z,19.97
2018-12-26T02:13:46.424Z,19.83
2018-12-26T02:16:25.737Z,23.60
2018-12-26T02:19:05.739Z,19.90
2018-12-26T02:21:45.771Z,21.10
2018-12-26T02:24:25.846Z,21.80
2018-12-26T02:27:05.157Z,22.50
2018-12-26T02:29:44.493Z,23.60
2018-12-26T02:32:24.728Z,23.50
2018-12-26T02:35:04.927Z,23.97
2018-12-26T02:37:45.100Z,20.00
2018-12-26T02:40:25.358Z,21.53
2018-12-26T02:43:05.388Z,22.07
2018-12-26T02:45:45.419Z,24.07
2018-12-26T02:48:25.471Z,24.27
2018-12-26T02:51:05.812Z,24.47
2018-12-26T02:53:45.503Z,24.80
2018-12-26T02:56:25.383Z,23.83
2018-12-26T02:59:05.341Z,22.30
2018-12-26T03:01:45.413Z,24.23
2018-12-26T03:04:25.392Z,24.70
2018-12-26T03:07:05.657Z,22.30
2018-12-26T03:09:45.679Z,26.47
2018-12-26T03:12:25.125Z,21.70
2018-12-26T03:15:05.236Z,25.30
2018-12-26T03:17:45.117Z,25.17
2018-12-26T03:20:25.151Z,25.00
2018-12-26T03:23:05.298Z,27.80
2018-12-26T03:25:45.309Z,29.20
2018-12-26T03:28:25.459Z,26.50
2018-12-26T03:31:05.691Z,27.77
2018-12-26T03:33:45.766Z,28.17
2018-12-26T03:36:25.774Z,28.57
2018-12-26T03:39:05.085Z,28.50
2018-12-26T03:41:45.157Z,29.63
2018-12-26T03:44:25.371Z,28.23
2018-12-26T03:47:05.450Z,29.30
2018-12-26T03:49:45.378Z,29.23
2018-12-26T03:52:25.508Z,27.37
2018-12-26T03:55:05.585Z,29.80
2018-12-26T03:57:45.779Z,30.40
2018-12-26T04:00:26.088Z,30.90
2018-12-26T04:03:06.254Z,30.03
2018-12-26T04:05:46.204Z,30.93
2018-12-26T04:08:26.126Z,29.63
2018-12-26T04:11:06.309Z,31.00
2018-12-26T04:13:43.702Z,31.37
2018-12-26T04:16:30.321Z,31.10
2018-12-26T04:19:09.974Z,30.10
2018-12-26T04:21:50.217Z,30.83
2018-12-26T04:24:29.850Z,30.83
2018-12-26T04:27:15.446Z,31.00
2018-12-26T04:29:50.828Z,28.97
2018-12-26T04:32:31.081Z,29.77
2018-12-26T04:35:11.459Z,34.10
2018-12-26T04:37:51.147Z,36.63
2018-12-26T04:40:31.037Z,33.97
2018-12-26T04:43:11.225Z,29.97
2018-12-26T04:45:51.346Z,33.83
2018-12-26T04:48:31.468Z,32.53
2018-12-26T04:51:11.965Z,32.23
2018-12-26T04:53:51.512Z,34.90
2018-12-26T04:56:31.556Z,32.40
2018-12-26T04:59:11.382Z,35.00
2018-12-26T05:01:51.430Z,36.23
2018-12-26T05:04:31.561Z,34.30
2018-12-26T05:07:10.844Z,35.60
2018-12-26T05:09:50.873Z,35.00
2018-12-26T05:12:30.908Z,35.57
2018-12-26T05:15:10.335Z,34.87
2018-12-26T05:17:50.216Z,33.83
2018-12-26T05:20:30.253Z,31.27
2018-12-26T05:23:10.231Z,34.40
2018-12-26T05:25:49.588Z,38.30
2018-12-26T05:28:28.932Z,37.43
2018-12-26T05:31:09.146Z,35.87
2018-12-26T05:33:49.347Z,36.37
2018-12-26T05:36:29.416Z,35.03
2018-12-26T05:39:09.420Z,34.90
2018-12-26T05:41:49.626Z,35.80
2018-12-26T05:44:29.645Z,35.43
2018-12-26T05:47:09.915Z,36.03
2018-12-26T05:49:50.166Z,34.43
2018-12-26T05:52:29.538Z,34.13
2018-12-26T05:55:09.794Z,34.27
2018-12-26T05:57:50.047Z,35.60
2018-12-26T06:00:30.457Z,36.50
2018-12-26T06:03:10.562Z,35.83
2018-12-26T06:05:50.496Z,35.40
2018-12-26T06:08:30.740Z,36.80
2018-12-26T06:11:10.664Z,38.50
2018-12-26T06:13:50.888Z,32.60
2018-12-26T06:16:31.113Z,32.77
2018-12-26T06:19:11.487Z,34.60
2018-12-26T06:21:51.245Z,34.80
2018-12-26T06:24:31.535Z,34.47
2018-12-26T06:27:11.593Z,34.30
2018-12-26T06:29:51.018Z,31.67
2018-12-26T06:32:30.371Z,32.43
2018-12-26T06:35:10.856Z,35.00
2018-12-26T06:37:51.156Z,32.13
2018-12-26T06:40:31.066Z,34.13
2018-12-26T06:43:11.122Z,31.17
2018-12-26T06:45:48.546Z,33.83
2018-12-26T06:48:34.825Z,32.00
2018-12-26T06:51:14.173Z,35.40
2018-12-26T06:53:54.565Z,32.27
2018-12-26T06:56:34.440Z,34.43
2018-12-26T06:59:14.498Z,34.43
2018-12-26T07:01:53.921Z,33.97
2018-12-26T07:04:34.006Z,32.60
2018-12-26T07:07:14.350Z,37.20
2018-12-26T07:09:54.140Z,35.37
2018-12-26T07:12:34.429Z,36.83
2018-12-26T07:15:14.526Z,35.33
2018-12-26T07:17:56.825Z,34.10
2018-12-26T07:20:37.006Z,38.80
2018-12-26T07:23:17.294Z,36.37
2018-12-26T07:25:57.611Z,35.53
2018-12-26T07:28:37.239Z,37.33
2018-12-26T07:31:17.673Z,37.07
2018-12-26T07:33:57.639Z,36.10
2018-12-26T07:36:37.993Z,35.83
2018-12-26T07:39:17.826Z,40.27
2018-12-26T07:41:57.918Z,39.77
2018-12-26T07:44:37.166Z,38.60
2018-12-26T07:47:17.318Z,36.00
2018-12-26T07:49:57.280Z,35.93
2018-12-26T07:52:37.345Z,35.80
2018-12-26T07:55:17.518Z,38.07
2018-12-26T07:57:57.761Z,35.80
2018-12-26T08:00:37.917Z,35.63
2018-12-26T08:03:17.937Z,33.80
2018-12-26T08:05:58.010Z,34.80
2018-12-26T08:08:38.118Z,34.57
2018-12-26T08:11:18.183Z,38.80
2018-12-26T08:13:58.102Z,35.07
2018-12-26T08:16:38.063Z,34.17
2018-12-26T08:19:18.112Z,32.83
2018-12-26T08:21:58.190Z,31.93
2018-12-26T08:24:38.187Z,34.70
2018-12-26T08:27:18.402Z,32.07
2018-12-26T08:29:58.555Z,34.17
2018-12-26T08:32:38.573Z,32.57
2018-12-26T08:35:18.666Z,33.23
2018-12-26T08:37:58.958Z,32.03
2018-12-26T08:40:39.173Z,31.87
2018-12-26T08:43:19.346Z,34.10
2018-12-26T08:45:59.486Z,34.90
2018-12-26T08:48:26.437Z,36.77
2018-12-26T08:51:12.758Z,34.87
2018-12-26T08:53:52.909Z,34.47
2018-12-26T08:56:33.100Z,31.57
2018-12-26T08:59:13.247Z,33.20
2018-12-26T09:01:53.324Z,31.87
2018-12-26T09:04:33.454Z,35.50
2018-12-26T09:07:13.376Z,34.40
2018-12-26T09:09:53.413Z,30.10
2018-12-26T09:12:33.337Z,33.97
2018-12-26T09:15:13.572Z,34.20
2018-12-26T09:17:54.125Z,37.33
2018-12-26T09:20:33.752Z,33.43
2018-12-26T09:23:13.634Z,37.40
2018-12-26T09:25:53.831Z,35.07
2018-12-26T09:28:33.873Z,39.73
2018-12-26T09:31:13.969Z,37.77
2018-12-26T09:33:54.134Z,37.80
2018-12-26T09:36:33.847Z,41.83
2018-12-26T09:39:13.733Z,40.70
2018-12-26T09:41:53.078Z,44.53
2018-12-26T09:44:33.224Z,42.50
2018-12-26T09:47:13.421Z,40.60
2018-12-26T09:49:53.830Z,44.47
2018-12-26T09:52:33.689Z,43.03
2018-12-26T09:55:13.822Z,43.37
2018-12-26T09:57:53.904Z,44.53
2018-12-26T10:00:34.168Z,36.77
2018-12-26T10:03:13.674Z,44.00
2018-12-26T10:05:53.757Z,44.17
2018-12-26T10:08:33.883Z,40.90
2018-12-26T10:11:14.002Z,41.90
2018-12-26T10:13:54.161Z,45.40
2018-12-26T10:16:33.701Z,39.00
2018-12-26T10:19:13.625Z,41.53
2018-12-26T10:21:53.608Z,43.97
2018-12-26T10:24:33.879Z,41.30
2018-12-26T10:27:13.961Z,43.73
2018-12-26T10:29:53.380Z,41.70
2018-12-26T10:32:33.359Z,40.30
2018-12-26T10:35:13.545Z,39.40
2018-12-26T10:37:53.498Z,41.00
2018-12-26T10:40:33.871Z,43.83
2018-12-26T10:43:13.858Z,43.10
2018-12-26T10:45:54.214Z,42.37
2018-12-26T10:48:34.161Z,44.40
2018-12-26T10:51:14.194Z,44.00
2018-12-26T10:53:54.204Z,43.27
2018-12-26T10:56:35.315Z,46.70
2018-12-26T10:59:15.606Z,43.93
2018-12-26T11:01:58.617Z,43.90
2018-12-26T11:04:58.124Z,45.73
2018-12-26T11:07:47.668Z,48.80
2018-12-26T11:10:32.867Z,46.43
2018-12-26T11:13:34.337Z,44.43
2018-12-26T11:16:15.638Z,45.90
2018-12-26T11:18:58.373Z,48.40
2018-12-26T11:21:41.300Z,50.53
2018-12-26T11:24:21.911Z,47.40
2018-12-26T11:27:02.452Z,48.30
2018-12-26T11:29:45.608Z,49.20
2018-12-26T11:32:30.525Z,49.33
2018-12-26T11:35:10.475Z,44.97
2018-12-26T11:37:50.137Z,46.33
2018-12-26T11:40:30.226Z,49.27
2018-12-26T11:43:10.101Z,47.47
2018-12-26T11:45:50.958Z,48.90
2018-12-26T11:48:30.195Z,49.73
2018-12-26T11:51:10.326Z,46.80
2018-12-26T11:53:50.486Z,49.87
2018-12-26T11:56:30.583Z,52.43
2018-12-26T11:59:10.676Z,47.47
2018-12-26T12:01:50.712Z,49.67
2018-12-26T12:04:30.115Z,47.43
2018-12-26T12:07:10.273Z,49.10
2018-12-26T12:09:50.296Z,48.57
2018-12-26T12:12:30.359Z,45.97
2018-12-26T12:15:10.586Z,48.33
2018-12-26T12:17:50.791Z,48.00
2018-12-26T12:20:31.286Z,46.33
2018-12-26T12:23:10.787Z,44.17
2018-12-26T12:25:50.072Z,46.63
2018-12-26T12:28:30.549Z,45.70
2018-12-26T12:31:10.167Z,44.87
2018-12-26T12:33:50.124Z,44.63
2018-12-26T12:36:30.434Z,42.70
2018-12-26T12:39:10.461Z,43.53
2018-12-26T12:41:50.458Z,44.67
2018-12-26T12:44:29.925Z,39.57
2018-12-26T12:47:09.920Z,42.37
2018-12-26T12:49:49.814Z,46.60
2018-12-26T12:52:30.021Z,45.00
2018-12-26T12:55:10.278Z,48.27
2018-12-26T12:57:50.162Z,46.43
2018-12-26T13:00:30.265Z,46.47
2018-12-26T13:03:10.390Z,46.87
2018-12-26T13:05:50.601Z,53.67
2018-12-26T13:08:30.670Z,46.30
2018-12-26T13:11:10.550Z,46.57
2018-12-26T13:13:50.111Z,46.47
2018-12-26T13:16:30.248Z,47.40
2018-12-26T13:19:10.232Z,46.67
2018-12-26T13:21:50.302Z,50.83
2018-12-26T13:24:30.494Z,46.20
2018-12-26T13:27:10.846Z,47.70
2018-12-26T13:29:53.926Z,45.07
2018-12-26T13:32:31.769Z,47.70
2018-12-26T13:35:11.796Z,47.90
2018-12-26T13:37:51.089Z,45.60
2018-12-26T13:40:31.588Z,51.67
2018-12-26T13:43:11.487Z,48.50
2018-12-26T13:45:50.771Z,48.50
2018-12-26T13:48:30.867Z,49.90
2018-12-26T13:51:10.924Z,48.00
2018-12-26T13:53:50.879Z,47.17
2018-12-26T13:56:31.021Z,48.23
2018-12-26T13:59:10.984Z,48.40
2018-12-26T14:01:51.146Z,41.70
2018-12-26T14:04:31.227Z,48.47
2018-12-26T14:07:11.326Z,49.63
2018-12-26T14:09:51.082Z,45.57
2018-12-26T14:12:31.150Z,44.93
2018-12-26T14:15:11.155Z,46.00
2018-12-26T14:17:52.254Z,45.27
2018-12-26T14:20:32.405Z,43.27
2018-12-26T14:23:12.587Z,46.63
2018-12-26T14:25:53.618Z,48.47
2018-12-26T14:28:33.765Z,45.83
2018-12-26T14:31:13.775Z,44.80
2018-12-26T14:33:53.828Z,46.47
2018-12-26T14:36:33.099Z,47.90
2018-12-26T14:39:13.188Z,45.13
2018-12-26T14:41:52.491Z,44.93
2018-12-26T14:44:32.646Z,46.07
2018-12-26T14:47:12.716Z,47.40
2018-12-26T14:49:54.977Z,47.50
2018-12-26T14:52:35.182Z,44.43
2018-12-26T14:55:15.076Z,42.77
2018-12-26T14:57:55.063Z,45.40
2018-12-26T15:00:35.253Z,43.53
2018-12-26T15:03:15.182Z,45.80
2018-12-26T15:05:55.195Z,46.87
2018-12-26T15:08:35.340Z,46.63
2018-12-26T15:11:15.497Z,48.40
2018-12-26T15:13:55.651Z,45.07
2018-12-26T15:16:35.771Z,42.20
2018-12-26T15:19:15.779Z,44.60
2018-12-26T15:21:55.880Z,44.53
2018-12-26T15:24:35.828Z,46.07
2018-12-26T15:27:15.738Z,44.30
2018-12-26T15:29:55.936Z,49.27
2018-12-26T15:32:36.165Z,46.40
2018-12-26T15:35:16.127Z,45.90
2018-12-26T15:37:56.095Z,46.87
2018-12-26T15:40:36.350Z,47.30
2018-12-26T15:43:16.461Z,48.97
2018-12-26T15:45:56.772Z,49.33
2018-12-26T15:48:36.650Z,46.23
2018-12-26T15:51:16.723Z,49.60
2018-12-26T15:53:57.020Z,45.23
2018-12-26T15:56:36.820Z,51.40
2018-12-26T15:59:17.256Z,48.77
2018-12-26T16:01:57.034Z,47.90
2018-12-26T16:04:37.173Z,47.67
2018-12-26T16:07:17.205Z,41.07
2018-12-26T16:09:57.287Z,48.53
2018-12-26T16:12:37.492Z,47.33
2018-12-26T16:15:17.498Z,47.30
2018-12-26T16:17:56.832Z,46.23
2018-12-26T16:20:36.909Z,43.80
2018-12-26T16:23:16.896Z,47.27
2018-12-26T16:25:57.047Z,45.37
2018-12-26T16:28:37.445Z,47.30
2018-12-26T16:31:17.359Z,48.27
2018-12-26T16:33:57.451Z,44.60
2018-12-26T16:36:37.482Z,52.87
2018-12-26T16:39:17.527Z,49.13
2018-12-26T16:41:57.640Z,48.23
2018-12-26T16:44:38.194Z,45.63
2018-12-26T16:47:18.000Z,48.20
2018-12-26T16:49:57.609Z,44.67
2018-12-26T16:52:37.535Z,43.50
2018-12-26T16:55:17.785Z,47.87
2018-12-26T16:57:57.762Z,48.60
2018-12-26T17:00:37.768Z,47.10
2018-12-26T17:03:15.173Z,50.30
2018-12-26T17:06:01.451Z,46.67
2018-12-26T17:08:41.156Z,48.60
2018-12-26T17:11:20.422Z,43.07
2018-12-26T17:14:00.553Z,50.00
2018-12-26T17:16:40.600Z,46.37
2018-12-26T17:19:20.817Z,45.17
2018-12-26T17:22:00.076Z,44.87
2018-12-26T17:24:40.127Z,45.50
2018-12-26T17:27:20.527Z,43.30
2018-12-26T17:30:00.388Z,46.57
2018-12-26T17:32:39.779Z,44.87
2018-12-26T17:35:19.799Z,46.50
2018-12-26T17:37:59.996Z,45.40
2018-12-26T17:40:40.244Z,46.33
2018-12-26T17:43:20.095Z,46.77
2018-12-26T17:46:00.082Z,46.50
2018-12-26T17:48:40.268Z,42.97
2018-12-26T17:51:20.019Z,46.50
2018-12-26T17:54:00.189Z,45.37
2018-12-26T17:56:40.255Z,46.47
2018-12-26T17:59:20.210Z,41.80
2018-12-26T18:02:00.338Z,44.63
2018-12-26T18:04:40.576Z,47.80
2018-12-26T18:07:20.610Z,46.57
2018-12-26T18:10:00.669Z,44.10
2018-12-26T18:12:40.825Z,46.97
2018-12-26T18:15:20.979Z,41.83
2018-12-26T18:18:01.003Z,41.00
2018-12-26T18:20:40.359Z,45.60
2018-12-26T18:23:20.472Z,46.47
2018-12-26T18:26:00.556Z,43.40
2018-12-26T18:28:40.701Z,45.17
2018-12-26T18:31:22.163Z,46.40
2018-12-26T18:34:01.629Z,44.63
2018-12-26T18:36:43.132Z,41.50
2018-12-26T18:39:22.836Z,39.60
2018-12-26T18:42:03.034Z,43.97
2018-12-26T18:44:43.215Z,45.23
2018-12-26T18:47:23.362Z,42.03
2018-12-26T18:50:03.285Z,40.43
2018-12-26T18:52:43.529Z,43.57
2018-12-26T18:55:23.348Z,41.77
2018-12-26T18:58:03.370Z,42.70
2018-12-26T19:00:43.240Z,37.93
2018-12-26T19:03:23.459Z,41.20
2018-12-26T19:06:03.279Z,39.10
2018-12-26T19:08:43.345Z,37.40
2018-12-26T19:11:23.490Z,38.00
2018-12-26T19:14:03.460Z,35.33
2018-12-26T19:16:42.725Z,38.47
2018-12-26T19:19:22.603Z,35.50
2018-12-26T19:22:02.600Z,36.70
2018-12-26T19:24:42.637Z,37.63
2018-12-26T19:27:22.751Z,34.17
2018-12-26T19:30:02.022Z,33.90
2018-12-26T19:32:42.283Z,36.50
2018-12-26T19:35:22.355Z,34.40
2018-12-26T19:38:01.995Z,36.67
2018-12-26T19:40:41.839Z,33.77
2018-12-26T19:43:21.869Z,35.87
2018-12-26T19:46:02.062Z,36.70
2018-12-26T19:48:42.002Z,36.70
2018-12-26T19:51:22.245Z,34.97
2018-12-26T19:54:02.062Z,35.53
2018-12-26T19:56:42.148Z,38.53
2018-12-26T19:59:22.130Z,34.40
2018-12-26T20:02:02.185Z,35.47
2018-12-26T20:04:42.320Z,35.40
2018-12-26T20:07:22.441Z,35.73
2018-12-26T20:10:01.999Z,37.87
2018-12-26T20:12:41.385Z,35.03
2018-12-26T20:15:21.127Z,36.40
2018-12-26T20:18:01.388Z,37.43
2018-12-26T20:20:41.418Z,35.77
2018-12-26T20:23:21.403Z,36.83
2018-12-26T20:26:01.518Z,39.20
2018-12-26T20:28:42.071Z,36.50
2018-12-26T20:31:21.803Z,36.93
2018-12-26T20:34:01.054Z,37.27
2018-12-26T20:36:41.123Z,37.57
2018-12-26T20:39:21.290Z,36.23
2018-12-26T20:42:01.417Z,37.67
2018-12-26T20:44:41.436Z,37.90
2018-12-26T20:47:21.514Z,38.40
2018-12-26T20:50:02.167Z,37.37
2018-12-26T20:52:41.561Z,36.47
2018-12-26T20:55:21.797Z,38.77
2018-12-26T20:58:01.670Z,37.20
2018-12-26T21:00:41.948Z,39.63
2018-12-26T21:03:22.234Z,40.70
2018-12-26T21:06:02.169Z,38.37
2018-12-26T21:08:41.859Z,39.27
2018-12-26T21:11:22.015Z,37.20
2018-12-26T21:14:02.024Z,37.00
2018-12-26T21:16:41.478Z,38.93
2018-12-26T21:19:22.585Z,37.53
2018-12-26T21:22:01.824Z,40.00
2018-12-26T21:24:42.136Z,37.30
2018-12-26T21:27:22.073Z,39.13
2018-12-26T21:30:01.454Z,40.33
2018-12-26T21:32:41.630Z,38.37
2018-12-26T21:35:21.896Z,33.90
2018-12-26T21:38:02.106Z,37.07
2018-12-26T21:40:42.119Z,36.90
2018-12-26T21:43:22.152Z,41.60
2018-12-26T21:46:02.311Z,39.10
2018-12-26T21:48:42.519Z,39.17
2018-12-26T21:51:22.685Z,36.90
2018-12-26T21:54:02.839Z,37.10
2018-12-26T21:56:43.060Z,37.03
2018-12-26T21:59:22.394Z,41.50
2018-12-26T22:02:02.830Z,37.17
2018-12-26T22:04:42.927Z,37.67
2018-12-26T22:07:23.167Z,37.90
2018-12-26T22:10:03.126Z,38.63
2018-12-26T22:12:43.174Z,38.27
2018-12-26T22:15:23.355Z,37.33
2018-12-26T22:17:49.872Z,40.90
2018-12-26T22:20:36.244Z,37.07
2018-12-26T22:23:15.726Z,37.60
2018-12-26T22:25:55.409Z,37.43
2018-12-26T22:28:36.487Z,40.37
2018-12-26T22:31:16.589Z,38.00
2018-12-26T22:33:56.619Z,38.40
2018-12-26T22:36:36.779Z,38.97
2018-12-26T22:39:16.848Z,41.77
2018-12-26T22:41:56.914Z,39.10
2018-12-26T22:44:36.886Z,38.67
2018-12-26T22:47:16.834Z,36.47
2018-12-26T22:49:56.798Z,38.50
2018-12-26T22:52:36.726Z,39.90
2018-12-26T22:55:16.722Z,40.40
2018-12-26T22:57:54.199Z,40.10
2018-12-26T23:03:41.331Z,39.67
2018-12-26T23:06:21.305Z,36.10
2018-12-26T23:09:01.611Z,38.77
2018-12-26T23:11:41.692Z,40.50
2018-12-26T23:14:21.869Z,38.50
2018-12-26T23:17:01.968Z,38.43
2018-12-26T23:19:42.089Z,40.43
2018-12-26T23:22:22.337Z,39.70
2018-12-26T23:25:03.463Z,44.17
2018-12-26T23:27:46.297Z,38.53
2018-12-26T23:30:26.768Z,45.87
2018-12-26T23:33:10.650Z,44.37
2018-12-26T23:35:51.449Z,44.43
2018-12-26T23:38:31.529Z,43.50
2018-12-26T23:41:11.644Z,43.07
2018-12-26T23:43:51.734Z,43.33
2018-12-26T23:46:31.743Z,43.20
2018-12-26T23:49:11.953Z,42.80
2018-12-26T23:51:51.698Z,43.90
2018-12-26T23:54:31.721Z,41.97
2018-12-26T23:57:11.946Z,43.20
2018-12-26T23:59:52.143Z,45.27
